Time;durP1;ratioP1;P1;durP2;ratioP2;P2;SDS_P1;SDS_P2;PMS_P1;PMS_P2;Temp;Humidity;BMP_temperature;BMP_pressure;BME280_temperature;BME280_humidity;BME280_pressure;Samples;Min_cycle;Max_cycle;Signal;HPM_P1;HPM_P2
2023/07/05 00:01:41;;;;;;;9.43;4.23;;;14.50;99.90;;;;;;5020196;28;21081;-75
2023/07/05 00:04:08;;;;;;;9.35;4.78;;;14.30;99.90;;;;;;5011081;28;20443;-76
2023/07/05 00:06:33;;;;;;;15.05;5.78;;;14.30;99.90;;;;;;5015792;28;20966;-76
2023/07/05 00:08:59;;;;;;;8.88;4.47;;;14.30;99.90;;;;;;5008695;28;20456;-75
2023/07/05 00:11:25;;;;;;;9.20;4.60;;;14.20;99.90;;;;;;5007947;28;20409;-75
2023/07/05 00:13:50;;;;;;;11.90;5.30;;;14.30;99.90;;;;;;5026581;28;20441;-76
2023/07/05 00:16:16;;;;;;;17.73;5.67;;;14.20;99.90;;;;;;5015402;28;20504;-76
2023/07/05 00:18:42;;;;;;;9.53;5.27;;;14.20;99.90;;;;;;5015874;28;20505;-76
2023/07/05 00:21:09;;;;;;;10.10;5.13;;;14.20;99.90;;;;;;5016730;28;20510;-76
2023/07/05 00:23:37;;;;;;;12.38;5.68;;;14.30;99.90;;;;;;5015734;28;20432;-76
2023/07/05 00:26:04;;;;;;;13.38;6.28;;;14.20;99.90;;;;;;5006657;28;20422;-75
2023/07/05 00:28:33;;;;;;;8.07;5.60;;;14.30;99.90;;;;;;4996004;28;20476;-76
2023/07/05 00:31:02;;;;;;;11.35;6.03;;;14.30;99.90;;;;;;5008346;28;20527;-76
2023/07/05 00:33:28;;;;;;;12.57;5.88;;;14.20;99.90;;;;;;4999614;28;20439;-76
2023/07/05 00:35:55;;;;;;;12.47;6.07;;;14.20;99.90;;;;;;5006647;28;20503;-76
2023/07/05 00:38:21;;;;;;;12.52;6.97;;;14.20;99.90;;;;;;5005369;28;20432;-76
2023/07/05 00:40:47;;;;;;;13.87;7.10;;;14.20;99.90;;;;;;5002333;28;20970;-75
2023/07/05 00:43:14;;;;;;;10.63;5.67;;;14.40;99.90;;;;;;5008812;28;20425;-76
2023/07/05 00:45:56;;;;;;;14.75;6.68;;;14.30;99.90;;;;;;5029102;28;20444;-76
2023/07/05 00:48:44;;;;;;;11.25;5.82;;;14.30;99.90;;;;;;5009160;28;20452;-75
2023/07/05 00:51:17;;;;;;;11.43;6.65;;;14.30;99.90;;;;;;5007754;28;20934;-78
2023/07/05 00:53:44;;;;;;;12.23;6.30;;;14.40;99.90;;;;;;5019773;28;20669;-76
2023/07/05 00:56:15;;;;;;;10.65;6.25;;;14.40;99.90;;;;;;5027580;28;20431;-77
2023/07/05 00:58:42;;;;;;;11.68;7.40;;;14.40;99.90;;;;;;5018204;28;20469;-75
2023/07/05 01:01:08;;;;;;;11.57;6.95;;;14.30;99.90;;;;;;5016858;28;20426;-76
2023/07/05 01:03:35;;;;;;;13.63;6.78;;;14.30;99.90;;;;;;5009518;28;20435;-76
2023/07/05 01:06:01;;;;;;;10.15;6.07;;;14.30;99.90;;;;;;5026582;28;20446;-76
2023/07/05 01:08:26;;;;;;;9.77;6.30;;;14.30;99.90;;;;;;5088343;23;20388;-77
2023/07/05 01:11:00;;;;;;;11.90;5.90;;;14.30;99.90;;;;;;4989261;28;20587;-75
2023/07/05 01:13:39;;;;;;;16.75;6.57;;;14.30;99.90;;;;;;4988861;28;20434;-75
2023/07/05 01:16:29;;;;;;;12.40;6.07;;;14.40;99.90;;;;;;4971730;28;20423;-76
2023/07/05 01:19:05;;;;;;;16.38;7.82;;;14.40;99.90;;;;;;4988397;28;20966;-74
2023/07/05 01:21:57;;;;;;;10.88;6.63;;;14.40;99.90;;;;;;4995620;28;20449;-75
2023/07/05 01:24:48;;;;;;;14.20;6.60;;;14.50;99.90;;;;;;4992139;28;20934;-76
2023/07/05 01:27:26;;;;;;;11.73;6.72;;;14.40;99.90;;;;;;4991000;28;20430;-75
2023/07/05 01:30:01;;;;;;;14.40;6.22;;;14.60;99.90;;;;;;4991880;28;20449;-76
2023/07/05 01:32:31;;;;;;;11.18;6.38;;;14.60;99.90;;;;;;4996512;28;20430;-75
2023/07/05 01:35:12;;;;;;;14.85;6.85;;;14.40;99.90;;;;;;4991388;28;20492;-75
2023/07/05 01:37:42;;;;;;;12.43;6.78;;;14.50;99.90;;;;;;4992189;28;20418;-75
2023/07/05 01:40:15;;;;;;;18.83;6.88;;;14.50;99.90;;;;;;4995779;28;20502;-76
2023/07/05 01:42:43;;;;;;;11.68;7.40;;;14.40;99.90;;;;;;4991659;28;20426;-75
2023/07/05 01:45:09;;;;;;;10.40;7.15;;;14.50;99.90;;;;;;5000649;28;20435;-77
2023/07/05 01:47:50;;;;;;;17.43;8.20;;;14.40;99.90;;;;;;5012337;28;20820;-75
2023/07/05 01:50:34;;;;;;;17.45;9.40;;;14.40;99.90;;;;;;4998813;28;20496;-77
2023/07/05 01:53:32;;;;;;;15.05;7.75;;;14.40;99.90;;;;;;5009112;28;20491;-75
2023/07/05 01:56:13;;;;;;;14.07;7.87;;;14.30;99.90;;;;;;4967605;28;20513;-76
2023/07/05 01:58:44;;;;;;;11.25;7.15;;;14.20;99.90;;;;;;4976411;28;20426;-78
2023/07/05 02:01:13;;;;;;;18.48;9.68;;;14.30;99.90;;;;;;4989717;28;20468;-76
2023/07/05 02:03:41;;;;;;;18.17;9.95;;;14.30;99.90;;;;;;4990832;28;20917;-76
2023/07/05 02:06:12;;;;;;;13.38;8.25;;;14.30;99.90;;;;;;4994683;28;20501;-75
2023/07/05 02:08:42;;;;;;;16.70;9.27;;;14.30;99.90;;;;;;4972628;28;20432;-77
2023/07/05 02:11:08;;;;;;;15.05;8.75;;;14.40;99.90;;;;;;4965782;28;20441;-76
2023/07/05 02:13:34;;;;;;;11.57;8.43;;;14.60;99.90;;;;;;4952375;29;20458;-74
2023/07/05 02:16:00;;;;;;;17.05;9.77;;;14.30;99.90;;;;;;4966638;28;20424;-75
2023/07/05 02:18:29;;;;;;;15.83;10.20;;;14.40;99.90;;;;;;4973648;28;20416;-75
2023/07/05 02:20:55;;;;;;;13.60;8.93;;;14.40;99.90;;;;;;4971782;28;20432;-77
2023/07/05 02:23:22;;;;;;;15.40;10.00;;;14.40;99.90;;;;;;4958181;28;20781;-76
2023/07/05 02:25:50;;;;;;;14.48;9.27;;;14.40;99.90;;;;;;4935794;29;20436;-76
2023/07/05 02:28:16;;;;;;;14.90;9.27;;;14.40;99.90;;;;;;4952170;28;20951;-76
2023/07/05 02:30:42;;;;;;;14.85;9.85;;;14.40;99.90;;;;;;4956953;28;20424;-78
2023/07/05 02:33:08;;;;;;;15.50;9.77;;;14.40;99.90;;;;;;4957719;28;20445;-75
2023/07/05 02:35:38;;;;;;;16.30;9.68;;;14.40;99.90;;;;;;4950374;28;20424;-76
2023/07/05 02:38:05;;;;;;;16.13;10.23;;;14.40;99.90;;;;;;4969289;28;20433;-74
2023/07/05 02:40:32;;;;;;;14.88;10.50;;;14.50;99.90;;;;;;4958326;28;20466;-75
2023/07/05 02:42:59;;;;;;;16.77;10.90;;;14.50;99.90;;;;;;4960008;28;20410;-76
2023/07/05 02:45:28;;;;;;;19.43;11.50;;;14.30;99.90;;;;;;4954480;28;20829;-77
2023/07/05 02:47:54;;;;;;;17.75;10.70;;;14.40;99.90;;;;;;4954590;28;20441;-76
2023/07/05 02:50:20;;;;;;;18.77;11.27;;;14.20;99.90;;;;;;4950584;28;20930;-76
2023/07/05 02:52:46;;;;;;;15.05;11.25;;;14.30;99.90;;;;;;4972473;28;20444;-74
2023/07/05 02:55:12;;;;;;;17.20;11.60;;;14.40;99.90;;;;;;4973419;28;20404;-75
2023/07/05 02:57:38;;;;;;;18.40;11.73;;;14.40;99.90;;;;;;4959636;28;20494;-76
2023/07/05 03:00:06;;;;;;;18.43;11.70;;;14.30;99.90;;;;;;4959040;28;20424;-76
2023/07/05 03:02:32;;;;;;;16.13;11.40;;;14.30;99.90;;;;;;4969952;28;20468;-76
2023/07/05 03:05:05;;;;;;;17.50;10.98;;;14.40;99.90;;;;;;4953673;28;20432;-75
2023/07/05 03:07:30;;;;;;;19.47;12.60;;;14.40;99.90;;;;;;4962310;28;20455;-75
2023/07/05 03:09:56;;;;;;;16.10;10.63;;;14.40;99.90;;;;;;4983778;28;20453;-75
2023/07/05 03:12:22;;;;;;;14.57;11.68;;;14.40;99.90;;;;;;4972936;28;20427;-75
2023/07/05 03:14:48;;;;;;;16.30;11.88;;;14.30;99.90;;;;;;4993436;28;20738;-76
2023/07/05 03:17:14;;;;;;;18.23;13.53;;;14.30;99.90;;;;;;5006135;28;20406;-78
2023/07/05 03:19:39;;;;;;;20.83;13.53;;;14.50;99.90;;;;;;4995405;28;20960;-75
2023/07/05 03:22:05;;;;;;;17.13;12.68;;;14.40;99.90;;;;;;4996186;28;20932;-77
2023/07/05 03:24:31;;;;;;;18.50;13.13;;;14.50;99.90;;;;;;4985263;28;21014;-76
2023/07/05 03:26:57;;;;;;;18.27;13.68;;;14.40;99.90;;;;;;4990399;28;20467;-76
2023/07/05 03:29:22;;;;;;;19.90;13.63;;;14.40;99.90;;;;;;4973294;28;20484;-75
2023/07/05 03:31:48;;;;;;;17.53;12.97;;;14.40;99.90;;;;;;4968555;28;20442;-75
2023/07/05 03:34:15;;;;;;;18.67;13.17;;;14.40;99.90;;;;;;4989407;28;20438;-75
2023/07/05 03:36:41;;;;;;;16.75;13.90;;;14.60;99.90;;;;;;4998093;28;20929;-77
2023/07/05 03:39:07;;;;;;;18.10;13.32;;;14.60;99.90;;;;;;4992319;28;20683;-76
2023/07/05 03:41:32;;;;;;;17.67;13.70;;;14.60;99.90;;;;;;4994029;28;20422;-75
2023/07/05 03:44:02;;;;;;;17.87;13.80;;;14.40;99.90;;;;;;4990006;28;20450;-74
2023/07/05 03:46:28;;;;;;;18.95;13.25;;;14.50;99.90;;;;;;4984342;28;20416;-75
2023/07/05 03:48:53;;;;;;;16.83;12.07;;;14.50;99.90;;;;;;4996651;28;20426;-76
2023/07/05 03:51:22;;;;;;;14.10;12.15;;;14.60;99.90;;;;;;4984298;28;20429;-75
2023/07/05 03:53:50;;;;;;;16.38;12.15;;;14.60;99.90;;;;;;4987666;28;20500;-75
2023/07/05 03:56:16;;;;;;;15.20;13.60;;;14.80;99.90;;;;;;4991333;28;20438;-74
2023/07/05 03:58:43;;;;;;;17.05;14.15;;;14.90;99.90;;;;;;4995555;28;20437;-76
2023/07/05 04:01:17;;;;;;;17.33;13.05;;;14.80;99.90;;;;;;4988411;28;20465;-77
2023/07/05 04:03:44;;;;;;;16.23;14.48;;;15.00;99.90;;;;;;5004746;28;20482;-78
2023/07/05 04:06:11;;;;;;;14.90;13.27;;;14.90;99.90;;;;;;4994347;28;20447;-75
2023/07/05 04:08:37;;;;;;;14.60;13.13;;;14.90;99.90;;;;;;5006304;28;20604;-75
2023/07/05 04:11:04;;;;;;;17.00;13.43;;;15.10;99.90;;;;;;5004513;28;20424;-76
2023/07/05 04:13:30;;;;;;;16.70;13.67;;;15.00;99.90;;;;;;4972565;28;20438;-74
2023/07/05 04:16:00;;;;;;;14.93;12.97;;;15.20;99.90;;;;;;4990011;28;20430;-75
2023/07/05 04:18:28;;;;;;;14.27;12.75;;;15.10;99.90;;;;;;4975035;28;20422;-74
2023/07/05 04:20:54;;;;;;;15.45;11.43;;;15.00;99.90;;;;;;5000663;28;20432;-75
2023/07/05 04:23:20;;;;;;;16.30;11.40;;;15.00;99.90;;;;;;4989891;28;20414;-76
2023/07/05 04:25:45;;;;;;;13.18;10.20;;;15.00;99.90;;;;;;4991295;28;20415;-76
2023/07/05 04:28:11;;;;;;;14.88;10.48;;;15.20;99.90;;;;;;5002032;28;20428;-77
2023/07/05 04:30:37;;;;;;;13.35;10.27;;;15.10;99.90;;;;;;4971534;28;20464;-75
2023/07/05 04:33:02;;;;;;;11.17;9.07;;;15.20;99.90;;;;;;4995799;28;20506;-75
2023/07/05 04:35:28;;;;;;;11.17;8.43;;;15.20;99.90;;;;;;4989713;28;21095;-76
2023/07/05 04:37:54;;;;;;;11.57;8.25;;;15.10;99.90;;;;;;4996382;28;20833;-75
2023/07/05 04:40:21;;;;;;;12.80;7.95;;;15.10;99.90;;;;;;4990461;28;20417;-75
2023/07/05 04:42:47;;;;;;;10.23;7.03;;;15.10;99.90;;;;;;4998474;28;20420;-76
2023/07/05 04:45:13;;;;;;;9.35;6.35;;;15.10;99.90;;;;;;4974032;28;20829;-76
2023/07/05 04:47:38;;;;;;;9.80;6.45;;;15.20;99.90;;;;;;4992872;28;20426;-76
2023/07/05 04:50:04;;;;;;;7.72;4.70;;;15.20;99.90;;;;;;4989931;28;20833;-76
2023/07/05 04:52:30;;;;;;;8.48;4.78;;;15.10;99.90;;;;;;4994747;28;20432;-75
2023/07/05 04:54:56;;;;;;;7.73;4.70;;;15.00;99.90;;;;;;5008415;28;20432;-75
2023/07/05 04:57:22;;;;;;;5.88;3.95;;;15.00;99.90;;;;;;4999084;28;20438;-74
2023/07/05 04:59:51;;;;;;;8.63;4.03;;;14.90;99.90;;;;;;4994485;28;20414;-74
2023/07/05 05:02:18;;;;;;;8.20;4.77;;;14.90;99.90;;;;;;4995291;28;20917;-76
2023/07/05 05:04:44;;;;;;;7.18;4.05;;;14.80;99.90;;;;;;5014789;28;20412;-75
2023/07/05 05:07:09;;;;;;;5.77;4.07;;;14.90;99.90;;;;;;4995768;28;20433;-75
2023/07/05 05:09:35;;;;;;;7.63;3.70;;;14.80;99.90;;;;;;4977024;28;20434;-76
2023/07/05 05:12:01;;;;;;;7.93;3.80;;;14.70;99.90;;;;;;4977254;28;20501;-74
2023/07/05 05:14:27;;;;;;;8.32;4.45;;;14.60;99.90;;;;;;4999566;28;20450;-76
2023/07/05 05:16:52;;;;;;;6.50;4.28;;;14.60;99.90;;;;;;4993505;28;20918;-75
2023/07/05 05:19:19;;;;;;;7.47;4.55;;;14.60;99.90;;;;;;4992529;28;20444;-76
2023/07/05 05:21:45;;;;;;;6.95;4.32;;;14.50;99.90;;;;;;4993822;28;20426;-73
2023/07/05 05:24:10;;;;;;;6.40;4.70;;;14.50;99.90;;;;;;4993557;28;21149;-77
2023/07/05 05:26:36;;;;;;;8.87;4.57;;;14.60;99.90;;;;;;4991568;28;20438;-74
2023/07/05 05:29:02;;;;;;;6.75;4.97;;;14.60;99.90;;;;;;4994166;28;20457;-76
2023/07/05 05:31:27;;;;;;;5.30;3.83;;;14.50;99.90;;;;;;4991688;28;20434;-74
2023/07/05 05:33:53;;;;;;;7.43;4.47;;;14.60;99.90;;;;;;4992680;28;20971;-75
2023/07/05 05:36:19;;;;;;;4.97;3.87;;;14.60;99.90;;;;;;4996246;28;20437;-74
2023/07/05 05:38:44;;;;;;;6.90;4.80;;;14.60;99.90;;;;;;5010148;28;20931;-76
2023/07/05 05:41:10;;;;;;;5.87;3.87;;;14.60;99.90;;;;;;5000138;28;20449;-76
2023/07/05 05:43:38;;;;;;;8.68;4.65;;;14.60;99.90;;;;;;5003453;28;20788;-75
2023/07/05 05:46:03;;;;;;;5.75;4.53;;;14.50;99.90;;;;;;5011100;28;20460;-76
2023/07/05 05:48:29;;;;;;;7.27;4.70;;;14.50;99.90;;;;;;5000319;28;20417;-76
2023/07/05 05:50:55;;;;;;;6.63;4.50;;;14.50;99.90;;;;;;5011585;28;20915;-75
2023/07/05 05:53:21;;;;;;;6.70;5.20;;;14.50;99.90;;;;;;5012300;28;20538;-76
2023/07/05 05:55:46;;;;;;;6.90;4.67;;;14.60;99.90;;;;;;5004553;28;20430;-76
2023/07/05 05:58:12;;;;;;;6.63;4.65;;;14.50;99.90;;;;;;4975567;28;20442;-76
2023/07/05 06:00:38;;;;;;;5.32;4.70;;;14.50;99.90;;;;;;4999291;28;20432;-76
2023/07/05 06:03:05;;;;;;;7.60;4.28;;;14.40;99.90;;;;;;4999276;28;20441;-75
2023/07/05 06:05:35;;;;;;;6.25;4.03;;;14.50;99.90;;;;;;5010769;28;20939;-75
2023/07/05 06:08:00;;;;;;;6.80;4.15;;;14.40;99.90;;;;;;5009914;28;20445;-74
2023/07/05 06:10:26;;;;;;;11.45;4.25;;;14.50;99.90;;;;;;4982022;28;20425;-75
2023/07/05 06:12:52;;;;;;;7.07;4.18;;;14.60;99.90;;;;;;4980947;28;20492;-76
2023/07/05 06:15:17;;;;;;;6.53;4.63;;;14.40;99.90;;;;;;4994570;28;20437;-76
2023/07/05 06:17:43;;;;;;;6.93;4.73;;;14.40;99.90;;;;;;4994593;28;20418;-77
2023/07/05 06:20:14;;;;;;;6.65;4.28;;;14.50;99.90;;;;;;4993314;28;20442;-77
2023/07/05 06:22:40;;;;;;;4.68;3.78;;;14.50;99.90;;;;;;5007128;28;20436;-77
2023/07/05 06:25:07;;;;;;;5.90;3.80;;;14.50;99.90;;;;;;4990466;28;20433;-79
2023/07/05 06:27:33;;;;;;;5.85;4.15;;;14.60;99.90;;;;;;4992045;28;20406;-75
2023/07/05 06:29:59;;;;;;;6.78;3.92;;;14.60;99.90;;;;;;4980629;28;20432;-78
2023/07/05 06:32:26;;;;;;;5.93;3.88;;;14.70;99.90;;;;;;4969779;28;20503;-76
2023/07/05 06:34:51;;;;;;;6.73;4.20;;;14.70;99.90;;;;;;4984822;28;20450;-76
2023/07/05 06:37:17;;;;;;;6.73;3.93;;;14.80;99.90;;;;;;4991489;28;20466;-77
2023/07/05 06:39:43;;;;;;;6.05;3.58;;;14.80;99.90;;;;;;4973803;28;20434;-76
2023/07/05 06:42:08;;;;;;;5.53;3.25;;;14.90;99.90;;;;;;4992077;28;20410;-78
2023/07/05 06:44:34;;;;;;;7.07;3.67;;;14.90;99.90;;;;;;4992905;28;20418;-77
2023/07/05 06:47:00;;;;;;;4.97;3.33;;;15.10;99.90;;;;;;4992420;28;20430;-76
2023/07/05 06:49:26;;;;;;;7.63;2.87;;;15.20;99.90;;;;;;4992581;28;20414;-77
2023/07/05 06:51:53;;;;;;;5.97;2.57;;;15.30;99.90;;;;;;4991865;28;20773;-76
2023/07/05 06:54:20;;;;;;;4.47;2.28;;;15.40;99.90;;;;;;4989597;28;20804;-77
2023/07/05 06:56:46;;;;;;;5.30;2.42;;;15.20;99.90;;;;;;4991236;28;21089;-75
2023/07/05 06:59:12;;;;;;;5.30;2.80;;;15.00;99.90;;;;;;4991181;28;20418;-78
2023/07/05 07:01:37;;;;;;;5.40;3.03;;;15.00;99.90;;;;;;4991669;28;20426;-76
2023/07/05 07:04:06;;;;;;;5.25;2.85;;;14.90;99.90;;;;;;4992008;28;20475;-75
2023/07/05 07:06:33;;;;;;;4.43;2.90;;;15.00;99.90;;;;;;4990452;28;20948;-77
2023/07/05 07:09:01;;;;;;;5.63;3.47;;;14.90;99.90;;;;;;4992080;28;20438;-78
2023/07/05 07:11:27;;;;;;;5.20;3.13;;;14.70;99.90;;;;;;4991042;28;20433;-76
2023/07/05 07:13:53;;;;;;;4.80;3.58;;;14.60;99.90;;;;;;4992206;28;20434;-76
2023/07/05 07:16:18;;;;;;;7.32;3.58;;;14.60;99.90;;;;;;4991211;28;20439;-77
2023/07/05 07:18:46;;;;;;;5.95;3.35;;;14.60;99.90;;;;;;4991060;28;20865;-75
2023/07/05 07:21:12;;;;;;;6.05;2.70;;;14.50;99.90;;;;;;4991373;28;20434;-78
2023/07/05 07:23:39;;;;;;;3.10;2.20;;;14.50;99.90;;;;;;4992280;28;20466;-76
2023/07/05 07:26:08;;;;;;;6.63;2.42;;;14.50;99.90;;;;;;4994963;28;20453;-79
2023/07/05 07:28:34;;;;;;;3.22;1.60;;;14.50;99.90;;;;;;4994641;28;20510;-79
2023/07/05 07:31:12;;;;;;;2.80;2.00;;;14.20;99.90;;;;;;4994988;28;20434;-79
2023/07/05 07:33:38;;;;;;;5.60;2.67;;;14.20;99.90;;;;;;4993606;28;20944;-79
2023/07/05 07:36:12;;;;;;;3.83;2.58;;;14.00;99.90;;;;;;4990987;28;20437;-79
2023/07/05 07:38:38;;;;;;;4.70;2.33;;;13.90;99.90;;;;;;4990626;28;20422;-78
2023/07/05 07:41:10;;;;;;;3.13;1.88;;;13.60;99.90;;;;;;4992220;28;20411;-79
2023/07/05 07:43:36;;;;;;;1.83;1.40;;;13.30;99.90;;;;;;4992067;28;20406;-73
2023/07/05 07:46:10;;;;;;;5.60;2.00;;;13.20;99.90;;;;;;4988579;28;20415;-78
2023/07/05 07:48:37;;;;;;;5.30;1.13;;;13.00;99.90;;;;;;4989003;28;20426;-74
2023/07/05 07:51:03;;;;;;;2.80;1.20;;;12.70;99.90;;;;;;4986234;28;20497;-73
2023/07/05 07:53:29;;;;;;;1.70;0.80;;;12.50;99.90;;;;;;4988661;28;20489;-74
2023/07/05 07:55:54;;;;;;;1.97;0.63;;;12.40;99.90;;;;;;4993157;28;20428;-72
2023/07/05 07:58:20;;;;;;;1.85;0.80;;;12.20;99.90;;;;;;4987837;28;20435;-74
2023/07/05 08:00:46;;;;;;;2.22;0.90;;;12.10;99.90;;;;;;4991041;28;20873;-73
2023/07/05 08:03:11;;;;;;;2.50;0.93;;;11.80;99.90;;;;;;4998946;28;20474;-74
2023/07/05 08:05:37;;;;;;;2.00;0.60;;;11.80;99.90;;;;;;5004782;28;20416;-75
2023/07/05 08:08:03;;;;;;;1.93;0.53;;;11.60;99.90;;;;;;4993495;28;20430;-74
2023/07/05 08:10:28;;;;;;;1.95;1.08;;;11.80;99.90;;;;;;4992969;28;20421;-76
2023/07/05 08:12:54;;;;;;;2.60;0.70;;;11.80;99.90;;;;;;4973134;28;20825;-74
2023/07/05 08:15:20;;;;;;;2.60;0.82;;;11.80;99.90;;;;;;4987851;28;20426;-72
2023/07/05 08:17:45;;;;;;;3.30;0.82;;;11.70;99.90;;;;;;5006101;28;20846;-73
2023/07/05 08:20:13;;;;;;;3.10;0.75;;;11.70;99.90;;;;;;4995824;28;20418;-76
2023/07/05 08:22:38;;;;;;;2.08;0.80;;;11.80;99.90;;;;;;4993963;28;20433;-77
2023/07/05 08:25:04;;;;;;;1.55;0.65;;;11.80;99.90;;;;;;4985374;28;20449;-76
2023/07/05 08:27:30;;;;;;;1.92;0.77;;;11.70;99.90;;;;;;4986267;28;20538;-73
2023/07/05 08:29:56;;;;;;;2.33;0.52;;;11.80;99.90;;;;;;4981338;28;20438;-74
2023/07/05 08:32:21;;;;;;;2.35;1.10;;;11.90;99.90;;;;;;4988509;28;20434;-78
2023/07/05 08:34:49;;;;;;;5.10;1.20;;;11.80;99.90;;;;;;4989276;28;20509;-74
2023/07/05 08:37:15;;;;;;;3.95;0.68;;;11.80;99.90;;;;;;4976619;28;20416;-75
2023/07/05 08:39:40;;;;;;;3.63;0.82;;;11.90;99.90;;;;;;4955032;28;20794;-75
2023/07/05 08:42:26;;;;;;;2.27;0.90;;;11.80;99.90;;;;;;4996612;28;20422;-76
2023/07/05 08:45:10;;;;;;;4.88;1.00;;;11.90;99.90;;;;;;4975905;28;20754;-77
2023/07/05 08:47:49;;;;;;;6.22;1.50;;;11.80;99.90;;;;;;4991578;28;20410;-75
2023/07/05 08:50:21;;;;;;;9.30;2.03;;;11.90;99.90;;;;;;4996212;28;20424;-75
2023/07/05 08:52:48;;;;;;;9.50;2.42;;;12.20;99.90;;;;;;4991800;28;20845;-75
2023/07/05 08:55:18;;;;;;;9.80;3.72;;;12.30;99.90;;;;;;4989517;28;20427;-75
2023/07/05 08:57:52;;;;;;;12.27;3.72;;;12.60;99.90;;;;;;4989522;28;20853;-75
2023/07/05 09:00:26;;;;;;;8.10;2.20;;;12.80;99.90;;;;;;4995843;28;20499;-75
2023/07/05 09:02:52;;;;;;;11.67;2.93;;;12.80;99.90;;;;;;5002294;28;20418;-75
2023/07/05 09:06:01;;;;;;;8.53;1.70;;;12.90;99.90;;;;;;4984462;28;20442;-75
2023/07/05 09:09:06;;;;;;;4.47;0.70;;;12.90;99.90;;;;;;4987752;28;20438;-75
2023/07/05 09:11:45;;;;;;;6.47;0.80;;;13.00;99.90;;;;;;4969506;28;20517;-76
2023/07/05 09:14:46;;;;;;;3.08;0.95;;;13.00;99.90;;;;;;4973518;28;20441;-78
2023/07/05 09:17:38;;;;;;;6.15;1.50;;;13.10;99.90;;;;;;4962439;28;20437;-77
2023/07/05 09:20:19;;;;;;;2.60;0.82;;;13.20;99.90;;;;;;4987887;28;20449;-76
2023/07/05 09:22:47;;;;;;;6.40;1.30;;;13.20;99.90;;;;;;5000143;28;20448;-75
2023/07/05 09:25:17;;;;;;;5.90;0.73;;;13.30;99.90;;;;;;4985933;28;20428;-74
2023/07/05 09:27:49;;;;;;;3.65;0.60;;;13.50;99.90;;;;;;4972557;28;20781;-75
2023/07/05 09:30:26;;;;;;;4.13;0.63;;;13.50;99.90;;;;;;4969759;28;20427;-75
2023/07/05 09:33:12;;;;;;;3.30;0.90;;;13.50;99.90;;;;;;4994281;28;20434;-77
2023/07/05 09:35:43;;;;;;;4.35;0.80;;;13.60;99.90;;;;;;4980925;28;20456;-75
2023/07/05 09:38:35;;;;;;;5.00;0.80;;;13.70;99.90;;;;;;4990636;28;20472;-76
2023/07/05 09:41:10;;;;;;;4.97;0.60;;;13.80;99.90;;;;;;4986466;28;20417;-78
2023/07/05 09:43:36;;;;;;;3.20;0.70;;;13.80;99.90;;;;;;4999077;28;20480;-76
2023/07/05 09:46:06;;;;;;;5.63;0.50;;;14.00;99.90;;;;;;4992126;28;20469;-75
2023/07/05 09:48:41;;;;;;;6.32;1.10;;;14.10;99.90;;;;;;4991837;28;20483;-77
2023/07/05 09:51:06;;;;;;;5.90;0.63;;;14.00;99.90;;;;;;4991647;28;20437;-76
2023/07/05 09:53:58;;;;;;;4.47;0.63;;;14.10;99.90;;;;;;4994460;28;20430;-77
2023/07/05 09:56:28;;;;;;;6.47;0.50;;;14.20;99.90;;;;;;4992526;28;20429;-77
2023/07/05 09:59:12;;;;;;;3.95;0.60;;;14.10;99.90;;;;;;4990574;28;20491;-78
2023/07/05 10:01:41;;;;;;;5.00;1.20;;;13.80;99.90;;;;;;4979771;28;20514;-76
2023/07/05 10:04:08;;;;;;;4.05;1.05;;;13.60;99.90;;;;;;5006762;28;20425;-74
2023/07/05 10:06:39;;;;;;;4.47;0.80;;;13.60;99.90;;;;;;4998319;28;20464;-78
2023/07/05 10:09:16;;;;;;;6.15;0.68;;;14.10;99.90;;;;;;4985835;28;20440;-76
2023/07/05 10:11:45;;;;;;;4.95;0.88;;;14.40;99.90;;;;;;4986352;28;20426;-79
2023/07/05 10:14:15;;;;;;;1.92;0.63;;;14.70;99.90;;;;;;4993477;28;20468;-75
2023/07/05 10:17:11;;;;;;;4.07;0.90;;;15.00;99.90;;;;;;4990702;28;20429;-76
2023/07/05 10:19:47;;;;;;;1.50;0.43;;;15.20;99.90;;;;;;4991452;28;20419;-75
2023/07/05 10:22:25;;;;;;;4.38;0.95;;;15.30;99.90;;;;;;4990930;28;20436;-74
2023/07/05 10:24:54;;;;;;;3.17;0.80;;;15.40;99.90;;;;;;4992084;28;20424;-74
2023/07/05 10:27:36;;;;;;;3.35;0.90;;;15.70;99.90;;;;;;4989529;28;20437;-78
2023/07/05 10:30:05;;;;;;;3.38;0.95;;;16.00;99.90;;;;;;4992842;28;20425;-76
2023/07/05 10:32:31;;;;;;;3.95;0.80;;;16.00;99.90;;;;;;4991811;28;20568;-75
2023/07/05 10:34:59;;;;;;;3.90;0.80;;;15.80;99.90;;;;;;4993375;28;20512;-75
2023/07/05 10:37:36;;;;;;;3.10;0.55;;;16.00;99.90;;;;;;4991148;28;20429;-75
2023/07/05 10:40:05;;;;;;;3.03;1.10;;;16.20;99.90;;;;;;4986450;28;20444;-76
2023/07/05 10:42:32;;;;;;;3.60;0.90;;;16.40;99.90;;;;;;4970256;28;20422;-75
2023/07/05 10:44:59;;;;;;;3.43;0.93;;;16.70;99.90;;;;;;4974303;28;20431;-76
2023/07/05 10:47:26;;;;;;;5.32;0.98;;;16.70;99.90;;;;;;4990842;28;20925;-76
2023/07/05 10:49:55;;;;;;;4.30;0.80;;;16.80;99.90;;;;;;4989449;28;20430;-74
2023/07/05 10:52:22;;;;;;;4.97;1.27;;;16.50;99.90;;;;;;4986046;28;20424;-75
2023/07/05 10:55:11;;;;;;;2.70;0.88;;;16.60;99.90;;;;;;4978788;28;20521;-74
2023/07/05 10:57:43;;;;;;;5.55;1.08;;;16.90;99.90;;;;;;4991857;28;20955;-75
2023/07/05 11:00:37;;;;;;;4.40;1.00;;;17.10;99.90;;;;;;4994376;28;20415;-75
2023/07/05 11:03:29;;;;;;;5.85;1.50;;;17.20;99.90;;;;;;5003106;28;20430;-78
2023/07/05 11:05:58;;;;;;;5.75;1.10;;;17.00;99.90;;;;;;4977470;28;20520;-75
2023/07/05 11:08:28;;;;;;;6.18;1.20;;;17.00;99.90;;;;;;4990964;28;20505;-75
2023/07/05 11:10:58;;;;;;;10.77;1.70;;;17.20;99.90;;;;;;4992770;28;20434;-76
2023/07/05 11:13:24;;;;;;;6.90;2.35;;;17.80;99.90;;;;;;4992028;28;20453;-75
2023/07/05 11:15:53;;;;;;;5.18;1.77;;;17.60;99.90;;;;;;4991737;28;20509;-77
2023/07/05 11:18:22;;;;;;;5.53;1.30;;;17.30;99.90;;;;;;5008233;28;20480;-74
2023/07/05 11:20:54;;;;;;;6.97;1.65;;;17.40;99.90;;;;;;5000490;28;20444;-75
2023/07/05 11:23:44;;;;;;;6.95;1.40;;;17.80;99.90;;;;;;4991385;28;20458;-76
2023/07/05 11:26:11;;;;;;;6.05;1.63;;;18.00;99.90;;;;;;4988601;28;20525;-75
2023/07/05 11:28:42;;;;;;;5.90;1.50;;;17.80;99.90;;;;;;4986513;28;20472;-75
2023/07/05 11:31:09;;;;;;;6.97;1.30;;;17.80;99.90;;;;;;4989448;28;20442;-76
2023/07/05 11:33:35;;;;;;;6.65;1.70;;;17.90;99.90;;;;;;4983447;28;20524;-76
2023/07/05 11:36:08;;;;;;;5.47;1.30;;;18.00;99.90;;;;;;4970789;28;20551;-76
2023/07/05 11:38:37;;;;;;;7.15;1.50;;;18.40;99.90;;;;;;4991864;28;20438;-75
2023/07/05 11:41:05;;;;;;;7.85;2.08;;;18.20;99.90;;;;;;4986257;28;20422;-76
2023/07/05 11:43:36;;;;;;;11.38;2.28;;;18.00;99.90;;;;;;4985606;28;20472;-77
2023/07/05 11:46:03;;;;;;;11.50;2.35;;;17.60;99.90;;;;;;4956133;28;20469;-76
2023/07/05 11:48:41;;;;;;;11.85;2.85;;;17.10;99.90;;;;;;4975283;28;20664;-75
2023/07/05 11:51:30;;;;;;;12.15;4.13;;;15.70;99.90;;;;;;4981388;28;20428;-76
2023/07/05 11:54:01;;;;;;;14.07;3.45;;;14.90;99.90;;;;;;4976932;28;20436;-78
2023/07/05 11:56:29;;;;;;;14.27;3.58;;;14.90;99.90;;;;;;4989176;28;20449;-77
2023/07/05 11:58:56;;;;;;;12.77;3.37;;;14.60;99.90;;;;;;4990145;28;20438;-74
2023/07/05 12:01:28;;;;;;;11.60;2.67;;;14.60;99.90;;;;;;4991255;28;20463;-75
2023/07/05 12:04:04;;;;;;;11.23;3.37;;;14.30;99.90;;;;;;5001063;28;20438;-74
2023/07/05 12:06:40;;;;;;;10.80;3.63;;;14.10;99.90;;;;;;4988420;28;20477;-77
2023/07/05 12:09:17;;;;;;;9.20;2.40;;;14.00;99.90;;;;;;4991328;28;20418;-75
2023/07/05 12:11:44;;;;;;;12.18;3.63;;;13.90;99.90;;;;;;4993276;28;20480;-77
2023/07/05 12:14:16;;;;;;;10.93;3.65;;;13.80;99.90;;;;;;4981202;28;20444;-76
2023/07/05 12:16:44;;;;;;;13.80;4.00;;;13.70;99.90;;;;;;4986316;28;20429;-75
2023/07/05 12:19:27;;;;;;;12.98;3.65;;;13.50;99.90;;;;;;4991814;28;20437;-78
2023/07/05 12:21:58;;;;;;;17.15;4.07;;;13.50;99.90;;;;;;4986034;28;20442;-76
2023/07/05 12:24:24;;;;;;;10.52;2.92;;;13.40;99.90;;;;;;5003848;28;20426;-76
2023/07/05 12:26:50;;;;;;;14.77;3.40;;;13.30;99.90;;;;;;5008144;28;20417;-76
2023/07/05 12:29:21;;;;;;;12.93;3.88;;;13.40;99.90;;;;;;5001510;28;20460;-76
2023/07/05 12:31:47;;;;;;;16.80;3.97;;;13.30;99.90;;;;;;5006348;28;20425;-76
2023/07/05 12:34:19;;;;;;;13.57;3.70;;;13.40;99.90;;;;;;5006565;28;20434;-75
2023/07/05 12:36:45;;;;;;;15.15;4.28;;;13.40;99.90;;;;;;4988021;28;20430;-75
2023/07/05 12:39:15;;;;;;;15.07;4.40;;;13.50;99.90;;;;;;4990537;28;20418;-73
2023/07/05 12:41:42;;;;;;;14.43;4.05;;;13.50;99.90;;;;;;4982726;28;20507;-74
2023/07/05 12:44:14;;;;;;;16.73;3.97;;;13.50;99.90;;;;;;4966074;28;20514;-79
2023/07/05 12:46:41;;;;;;;21.40;4.72;;;13.40;99.90;;;;;;4971527;28;20452;-76
2023/07/05 12:49:20;;;;;;;14.23;3.70;;;13.50;99.90;;;;;;4989305;28;20407;-73
2023/07/05 12:51:54;;;;;;;16.97;4.37;;;13.50;99.90;;;;;;4989223;28;20955;-75
2023/07/05 12:54:21;;;;;;;13.03;3.90;;;13.50;99.90;;;;;;4988740;28;20473;-74